Weather at Vulcan Airport

Public forecast

Using degrees Celsius for public forecast. Weather courtesy of forecast.io.

Closest aviation weather report (METAR) to Vulcan Airport

Closest report is Lethbridge County Airport, 50.1 nm (92.8 km) SSE.

2024/05/24 01:00 (retrieved 1 hour ago)

CYQL 240100Z 36008G16KT 30SM SCT065 BKN085 BKN230 10/06 A2988 RMK SC4AC2CI1 SLP136 DENSITY ALT 3300FT

Closest aviation forecast (TAF) to Vulcan Airport

Closest forecast is Malmstrom Air Force Base, 192.7 nm (356.9 km) SSE.

2024/05/23 21:02 (retrieved 5 hours ago)

TAF KGFA 232100Z 2321/2503 VRB06KT 9999 SCT045 BKN060 510052 QNH2982INS BECMG 2415/2416 24010G20KT 9999 FEW035 SCT050 520052 QNH2979INS BECMG 2502/2503 VRB06KT 9999 FEW050 FEW070 SCT100 510032 QNH2968INS TX15/2421Z TN07/2412Z